Дата Пункты Температура Давл., мм. Влажн., % Ветер Погодные явления
Воздуха Воды Направл. Скорость
02.04.18 03:00 Одесса 11.0 6.0 752 51 С-З 3 15 ЧАСОВ
02.04.18 12:00 Одесса 9.0 5.0 751 57 С-З 5 12 ЧАСОВ
02.04.18 09:00 Одесса 8.0 5.0 748 83 С-З 5 09 ЧАСОВ
02.04.18 06:00 Одесса 7.0 5.0 746 93 З 2 06 ЧАСОВ
02.04.18 03:00 Одесса 7.0 5.0 747 93 Ю-З 2 03 ЧАСА
01.04.18 09:00 Одесса 9.0 5.0 747 79 Ю-З 3 21 ЧАС
01.04.18 06:00 Одесса 8.0 5.0 746 85 Ю 8 18 ЧАСОВ
01.04.18 03:00 Одесса 10.0 5.0 747 78 Ю 9 15 ЧАСОВ
01.04.18 12:00 Одесса 10.0 4.0 748 79 Ю 6 12 ЧАСОВ
01.04.18 09:00 Одесса 8.0 4.0 749 87 Ю 8 09 ЧАСОВ
01.04.18 06:00 Одесса 7.0 5.0 750 89 Ю 5 06 ЧАСОВ
01.04.18 03:00 Одесса 6.0 5.0 752 94 Ю 6 03 ЧАСА
31.03.18 09:00 Одесса 7.0 5.0 756 93 Ю-З 5 21 ЧАС
31.03.18 06:00 Одесса 7.0 4.0 756 90 Ю 5 18 ЧАСОВ
31.03.18 03:00 Одесса 8.0 4.0 758 86 Ю 4 15 ЧАСОВ
31.03.18 12:00 Одесса 8.0 4.0 759 86 Ю 5 12 ЧАСОВ
31.03.18 09:00 Одесса 7.0 4.0 759 94 Ю 5 09 ЧАСОВ
31.03.18 06:00 Одесса 5.0 4.0 759 97 Ю 4 06 ЧАСОВ
31.03.18 03:00 Одесса 6.0 4.0 760 98 Ю-З 3 03 ЧАСА
30.03.18 09:00 Одесса 5.0 4.0 761 97 Ю 3 21 ЧАС
Количество строк
1 2 3 4 5 6 7 8 9 10
Page 9 of 354